sensor_id;sensor_type;location;lat;lon;timestamp;pressure;altitude;pressure_sealevel;temperature;humidity
52291;BME280;39663;45.432;28.050;2024-03-02T00:00:28;101415.26;;;9.17;45.61
52291;BME280;39663;45.432;28.050;2024-03-02T00:01:00;101415.09;;;8.87;46.36
52291;BME280;39663;45.432;28.050;2024-03-02T00:01:31;101420.33;;;8.66;46.75
52291;BME280;39663;45.432;28.050;2024-03-02T00:02:08;101418.80;;;8.94;46.48
52291;BME280;39663;45.432;28.050;2024-03-02T00:02:42;101415.37;;;8.82;46.87
52291;BME280;39663;45.432;28.050;2024-03-02T00:03:13;101417.54;;;8.43;47.26
52291;BME280;39663;45.432;28.050;2024-03-02T00:03:45;101418.30;;;8.70;47.29
52291;BME280;39663;45.432;28.050;2024-03-02T00:04:17;101408.49;;;8.74;47.15
52291;BME280;39663;45.432;28.050;2024-03-02T00:04:48;101407.06;;;8.89;47.05
52291;BME280;39663;45.432;28.050;2024-03-02T00:05:22;101410.90;;;9.17;47.33
52291;BME280;39663;45.432;28.050;2024-03-02T00:05:55;101406.56;;;9.63;48.58
52291;BME280;39663;45.432;28.050;2024-03-02T00:06:26;101404.71;;;9.62;46.08
52291;BME280;39663;45.432;28.050;2024-03-02T00:06:58;101403.73;;;9.70;46.46
52291;BME280;39663;45.432;28.050;2024-03-02T00:07:29;101403.23;;;10.00;45.86
52291;BME280;39663;45.432;28.050;2024-03-02T00:08:01;101405.18;;;9.44;45.83
52291;BME280;39663;45.432;28.050;2024-03-02T00:08:49;101406.36;;;10.06;47.37
52291;BME280;39663;45.432;28.050;2024-03-02T00:09:21;101405.82;;;10.07;45.22
52291;BME280;39663;45.432;28.050;2024-03-02T00:09:53;101406.86;;;9.55;45.65
52291;BME280;39663;45.432;28.050;2024-03-02T00:10:27;101402.00;;;9.16;45.75
52291;BME280;39663;45.432;28.050;2024-03-02T00:11:01;101404.90;;;9.64;45.47
52291;BME280;39663;45.432;28.050;2024-03-02T00:11:35;101405.81;;;9.63;45.27
52291;BME280;39663;45.432;28.050;2024-03-02T00:12:07;101407.64;;;9.19;46.07
52291;BME280;39663;45.432;28.050;2024-03-02T00:12:38;101408.13;;;9.56;47.23
52291;BME280;39663;45.432;28.050;2024-03-02T00:13:10;101409.09;;;9.67;45.43
52291;BME280;39663;45.432;28.050;2024-03-02T00:13:44;101412.54;;;9.28;46.38
52291;BME280;39663;45.432;28.050;2024-03-02T00:14:16;101414.67;;;9.36;45.67
52291;BME280;39663;45.432;28.050;2024-03-02T00:14:48;101415.63;;;9.31;45.28
52291;BME280;39663;45.432;28.050;2024-03-02T00:15:35;101419.66;;;8.42;46.47
52291;BME280;39663;45.432;28.050;2024-03-02T00:16:11;101419.37;;;8.31;47.09
52291;BME280;39663;45.432;28.050;2024-03-02T00:16:42;101413.55;;;8.46;47.51
52291;BME280;39663;45.432;28.050;2024-03-02T00:17:21;101414.00;;;9.35;46.79
52291;BME280;39663;45.432;28.050;2024-03-02T00:17:55;101409.50;;;9.22;45.68
52291;BME280;39663;45.432;28.050;2024-03-02T00:18:30;101406.93;;;8.92;45.75
52291;BME280;39663;45.432;28.050;2024-03-02T00:19:06;101410.05;;;8.64;46.52
52291;BME280;39663;45.432;28.050;2024-03-02T00:19:39;101407.40;;;8.88;47.05
52291;BME280;39663;45.432;28.050;2024-03-02T00:20:10;101408.52;;;9.22;47.57
52291;BME280;39663;45.432;28.050;2024-03-02T00:20:46;101407.08;;;9.53;45.53
52291;BME280;39663;45.432;28.050;2024-03-02T00:21:19;101401.91;;;9.05;46.24
52291;BME280;39663;45.432;28.050;2024-03-02T00:21:50;101400.76;;;9.00;46.19
52291;BME280;39663;45.432;28.050;2024-03-02T00:22:22;101405.39;;;8.82;46.89
52291;BME280;39663;45.432;28.050;2024-03-02T00:22:57;101397.59;;;8.96;47.08
52291;BME280;39663;45.432;28.050;2024-03-02T00:23:36;101397.79;;;9.13;46.40
52291;BME280;39663;45.432;28.050;2024-03-02T00:24:19;101396.10;;;8.55;46.70
52291;BME280;39663;45.432;28.050;2024-03-02T00:24:52;101393.04;;;8.59;46.56
52291;BME280;39663;45.432;28.050;2024-03-02T00:25:24;101399.77;;;7.96;47.67
52291;BME280;39663;45.432;28.050;2024-03-02T00:25:55;101396.19;;;8.62;48.58
52291;BME280;39663;45.432;28.050;2024-03-02T00:26:27;101391.86;;;8.65;47.07
52291;BME280;39663;45.432;28.050;2024-03-02T00:26:59;101399.59;;;8.60;47.12
52291;BME280;39663;45.432;28.050;2024-03-02T00:27:31;101397.23;;;8.17;47.65
52291;BME280;39663;45.432;28.050;2024-03-02T00:28:03;101393.74;;;8.82;47.80
52291;BME280;39663;45.432;28.050;2024-03-02T00:28:36;101391.92;;;8.58;48.30
52291;BME280;39663;45.432;28.050;2024-03-02T00:29:07;101388.42;;;8.96;46.54
52291;BME280;39663;45.432;28.050;2024-03-02T00:29:40;101387.08;;;9.01;46.32
52291;BME280;39663;45.432;28.050;2024-03-02T00:30:41;101385.02;;;9.07;46.88
52291;BME280;39663;45.432;28.050;2024-03-02T00:31:20;101379.73;;;9.04;45.94
52291;BME280;39663;45.432;28.050;2024-03-02T00:31:52;101378.79;;;9.02;46.99
52291;BME280;39663;45.432;28.050;2024-03-02T00:32:35;101378.40;;;9.13;47.17
52291;BME280;39663;45.432;28.050;2024-03-02T00:33:07;101376.02;;;8.70;46.80
52291;BME280;39663;45.432;28.050;2024-03-02T00:33:41;101379.10;;;8.25;47.77
52291;BME280;39663;45.432;28.050;2024-03-02T00:34:14;101375.13;;;8.51;47.27
52291;BME280;39663;45.432;28.050;2024-03-02T00:34:45;101376.04;;;8.34;47.31
52291;BME280;39663;45.432;28.050;2024-03-02T00:35:17;101380.70;;;7.99;47.66
52291;BME280;39663;45.432;28.050;2024-03-02T00:35:49;101379.29;;;7.85;48.18
52291;BME280;39663;45.432;28.050;2024-03-02T00:36:24;101382.57;;;8.17;48.17
52291;BME280;39663;45.432;28.050;2024-03-02T00:37:02;101380.75;;;8.21;47.97
52291;BME280;39663;45.432;28.050;2024-03-02T00:37:34;101383.48;;;8.35;48.22
52291;BME280;39663;45.432;28.050;2024-03-02T00:38:09;101383.16;;;7.71;48.44
52291;BME280;39663;45.432;28.050;2024-03-02T00:38:46;101386.13;;;7.44;48.92
52291;BME280;39663;45.432;28.050;2024-03-02T00:39:18;101387.03;;;8.03;48.03
52291;BME280;39663;45.432;28.050;2024-03-02T00:39:50;101386.72;;;8.23;48.21
52291;BME280;39663;45.432;28.050;2024-03-02T00:40:22;101387.70;;;8.13;48.68
52291;BME280;39663;45.432;28.050;2024-03-02T00:41:00;101382.06;;;9.43;46.98
52291;BME280;39663;45.432;28.050;2024-03-02T00:41:34;101379.56;;;9.72;45.78
52291;BME280;39663;45.432;28.050;2024-03-02T00:42:06;101384.21;;;9.44;45.49
52291;BME280;39663;45.432;28.050;2024-03-02T00:42:37;101382.71;;;9.02;45.86
52291;BME280;39663;45.432;28.050;2024-03-02T00:43:29;101381.33;;;9.10;46.40
52291;BME280;39663;45.432;28.050;2024-03-02T00:44:12;101382.31;;;9.66;45.85
52291;BME280;39663;45.432;28.050;2024-03-02T00:44:43;101379.15;;;9.91;45.71
52291;BME280;39663;45.432;28.050;2024-03-02T00:45:15;101379.45;;;8.83;46.85
52291;BME280;39663;45.432;28.050;2024-03-02T00:45:47;101378.87;;;9.18;46.16
52291;BME280;39663;45.432;28.050;2024-03-02T00:46:19;101381.35;;;9.46;45.72
52291;BME280;39663;45.432;28.050;2024-03-02T00:46:50;101378.56;;;9.17;46.57
52291;BME280;39663;45.432;28.050;2024-03-02T00:47:22;101380.25;;;9.16;46.84
52291;BME280;39663;45.432;28.050;2024-03-02T00:48:00;101381.50;;;9.60;45.60
52291;BME280;39663;45.432;28.050;2024-03-02T00:48:31;101375.85;;;10.09;45.56
52291;BME280;39663;45.432;28.050;2024-03-02T00:49:05;101375.70;;;9.65;44.99
52291;BME280;39663;45.432;28.050;2024-03-02T00:49:36;101377.91;;;9.08;46.36
52291;BME280;39663;45.432;28.050;2024-03-02T00:50:08;101375.91;;;9.86;44.98
52291;BME280;39663;45.432;28.050;2024-03-02T00:50:40;101376.33;;;9.20;45.74
52291;BME280;39663;45.432;28.050;2024-03-02T00:51:11;101377.36;;;9.39;45.68
52291;BME280;39663;45.432;28.050;2024-03-02T00:51:49;101376.10;;;8.93;46.13
52291;BME280;39663;45.432;28.050;2024-03-02T00:52:21;101372.29;;;9.37;46.01
52291;BME280;39663;45.432;28.050;2024-03-02T00:52:52;101368.74;;;9.86;46.49
52291;BME280;39663;45.432;28.050;2024-03-02T00:53:26;101368.67;;;9.80;44.91
52291;BME280;39663;45.432;28.050;2024-03-02T00:53:59;101367.29;;;9.55;44.89
52291;BME280;39663;45.432;28.050;2024-03-02T00:54:31;101368.55;;;9.82;44.66
52291;BME280;39663;45.432;28.050;2024-03-02T00:55:03;101366.91;;;10.18;44.61
52291;BME280;39663;45.432;28.050;2024-03-02T00:55:36;101367.23;;;9.72;44.96
52291;BME280;39663;45.432;28.050;2024-03-02T00:56:11;101366.32;;;10.33;45.03
52291;BME280;39663;45.432;28.050;2024-03-02T00:56:45;101366.24;;;9.54;45.15
52291;BME280;39663;45.432;28.050;2024-03-02T00:57:17;101367.88;;;9.87;44.45
52291;BME280;39663;45.432;28.050;2024-03-02T00:57:49;101362.41;;;10.58;44.28
52291;BME280;39663;45.432;28.050;2024-03-02T00:58:21;101363.59;;;10.59;43.30
52291;BME280;39663;45.432;28.050;2024-03-02T00:58:52;101360.16;;;10.45;43.66
52291;BME280;39663;45.432;28.050;2024-03-02T01:09:36;101342.49;;;9.07;46.82
52291;BME280;39663;45.432;28.050;2024-03-02T01:10:08;101346.39;;;8.66;47.42
52291;BME280;39663;45.432;28.050;2024-03-02T01:10:40;101343.89;;;9.47;46.94
52291;BME280;39663;45.432;28.050;2024-03-02T01:11:12;101344.44;;;9.04;47.63
52291;BME280;39663;45.432;28.050;2024-03-02T01:11:43;101347.20;;;9.15;46.72
52291;BME280;39663;45.432;28.050;2024-03-02T01:12:15;101347.01;;;8.87;46.90
52291;BME280;39663;45.432;28.050;2024-03-02T01:12:46;101345.40;;;8.63;47.67
52291;BME280;39663;45.432;28.050;2024-03-02T01:13:18;101344.98;;;8.81;47.12
52291;BME280;39663;45.432;28.050;2024-03-02T01:13:49;101348.57;;;8.65;47.06
52291;BME280;39663;45.432;28.050;2024-03-02T01:14:21;101349.57;;;9.03;47.15
52291;BME280;39663;45.432;28.050;2024-03-02T01:14:52;101346.57;;;9.19;47.40
52291;BME280;39663;45.432;28.050;2024-03-02T01:15:24;101348.78;;;9.83;46.86
52291;BME280;39663;45.432;28.050;2024-03-02T01:15:55;101345.45;;;9.59;46.03
52291;BME280;39663;45.432;28.050;2024-03-02T01:16:27;101348.69;;;8.60;46.66
52291;BME280;39663;45.432;28.050;2024-03-02T01:16:59;101351.24;;;8.17;47.74
52291;BME280;39663;45.432;28.050;2024-03-02T01:17:30;101353.28;;;8.14;48.21
52291;BME280;39663;45.432;28.050;2024-03-02T01:18:02;101354.94;;;8.66;47.19
52291;BME280;39663;45.432;28.050;2024-03-02T01:18:33;101354.21;;;8.41;47.54
52291;BME280;39663;45.432;28.050;2024-03-02T01:19:05;101360.83;;;8.21;47.67
52291;BME280;39663;45.432;28.050;2024-03-02T01:19:36;101361.38;;;7.90;48.25
52291;BME280;39663;45.432;28.050;2024-03-02T01:20:09;101364.77;;;8.11;47.92
52291;BME280;39663;45.432;28.050;2024-03-02T01:20:41;101365.50;;;8.08;48.04
52291;BME280;39663;45.432;28.050;2024-03-02T01:21:12;101366.78;;;8.02;48.24
52291;BME280;39663;45.432;28.050;2024-03-02T01:21:49;101367.94;;;7.88;48.36
52291;BME280;39663;45.432;28.050;2024-03-02T01:22:21;101364.55;;;8.46;47.61
52291;BME280;39663;45.432;28.050;2024-03-02T01:22:52;101365.92;;;8.39;47.72
52291;BME280;39663;45.432;28.050;2024-03-02T01:23:24;101368.48;;;8.19;47.80
52291;BME280;39663;45.432;28.050;2024-03-02T01:23:56;101364.66;;;8.90;47.87
52291;BME280;39663;45.432;28.050;2024-03-02T01:24:27;101362.90;;;8.88;47.34
52291;BME280;39663;45.432;28.050;2024-03-02T01:24:59;101365.95;;;8.09;47.90
52291;BME280;39663;45.432;28.050;2024-03-02T01:25:31;101365.05;;;8.31;47.97
52291;BME280;39663;45.432;28.050;2024-03-02T01:26:02;101359.00;;;8.58;46.90
52291;BME280;39663;45.432;28.050;2024-03-02T01:26:34;101359.41;;;8.79;46.75
52291;BME280;39663;45.432;28.050;2024-03-02T01:27:05;101360.66;;;9.63;46.78
52291;BME280;39663;45.432;28.050;2024-03-02T01:27:37;101359.84;;;9.41;46.40
52291;BME280;39663;45.432;28.050;2024-03-02T01:28:08;101356.62;;;9.20;46.34
52291;BME280;39663;45.432;28.050;2024-03-02T01:28:40;101358.79;;;8.48;46.88
52291;BME280;39663;45.432;28.050;2024-03-02T01:29:11;101363.63;;;7.98;48.02
52291;BME280;39663;45.432;28.050;2024-03-02T01:29:43;101358.85;;;8.73;48.38
52291;BME280;39663;45.432;28.050;2024-03-02T01:30:27;101357.21;;;9.09;45.82
52291;BME280;39663;45.432;28.050;2024-03-02T01:30:59;101357.52;;;8.49;47.40
52291;BME280;39663;45.432;28.050;2024-03-02T01:31:30;101356.86;;;9.41;46.59
52291;BME280;39663;45.432;28.050;2024-03-02T01:32:01;101358.44;;;9.28;46.07
52291;BME280;39663;45.432;28.050;2024-03-02T01:32:33;101357.13;;;8.58;46.94
52291;BME280;39663;45.432;28.050;2024-03-02T01:33:06;101358.30;;;8.53;47.19
52291;BME280;39663;45.432;28.050;2024-03-02T01:33:43;101364.51;;;7.90;47.80
52291;BME280;39663;45.432;28.050;2024-03-02T01:34:14;101362.73;;;8.00;47.92
52291;BME280;39663;45.432;28.050;2024-03-02T01:34:46;101362.41;;;8.54;47.43
52291;BME280;39663;45.432;28.050;2024-03-02T01:35:17;101362.69;;;7.94;47.73
52291;BME280;39663;45.432;28.050;2024-03-02T01:35:49;101365.57;;;8.02;47.69
52291;BME280;39663;45.432;28.050;2024-03-02T01:36:21;101358.41;;;8.67;48.18
52291;BME280;39663;45.432;28.050;2024-03-02T01:36:52;101356.26;;;8.60;46.77
52291;BME280;39663;45.432;28.050;2024-03-02T01:37:24;101360.00;;;8.21;47.52
52291;BME280;39663;45.432;28.050;2024-03-02T01:37:55;101359.35;;;7.80;48.04
52291;BME280;39663;45.432;28.050;2024-03-02T01:38:27;101358.97;;;7.89;48.12
52291;BME280;39663;45.432;28.050;2024-03-02T01:38:58;101353.31;;;8.42;47.64
52291;BME280;39663;45.432;28.050;2024-03-02T01:39:29;101352.13;;;8.74;47.26
52291;BME280;39663;45.432;28.050;2024-03-02T01:40:01;101356.22;;;8.49;47.95
52291;BME280;39663;45.432;28.050;2024-03-02T01:40:33;101353.18;;;8.14;48.08
52291;BME280;39663;45.432;28.050;2024-03-02T01:41:05;101354.37;;;8.54;47.97
52291;BME280;39663;45.432;28.050;2024-03-02T01:41:39;101346.78;;;9.55;47.35
52291;BME280;39663;45.432;28.050;2024-03-02T01:42:10;101345.88;;;9.35;45.98
52291;BME280;39663;45.432;28.050;2024-03-02T01:42:43;101347.43;;;9.38;45.86
52291;BME280;39663;45.432;28.050;2024-03-02T01:43:15;101348.34;;;9.09;46.33
52291;BME280;39663;45.432;28.050;2024-03-02T01:43:51;101346.85;;;8.48;47.08
52291;BME280;39663;45.432;28.050;2024-03-02T01:44:23;101345.53;;;8.65;46.89
52291;BME280;39663;45.432;28.050;2024-03-02T01:44:54;101344.22;;;8.47;47.21
52291;BME280;39663;45.432;28.050;2024-03-02T01:45:26;101345.28;;;8.45;47.21
52291;BME280;39663;45.432;28.050;2024-03-02T01:45:57;101347.93;;;8.33;47.96
52291;BME280;39663;45.432;28.050;2024-03-02T01:46:28;101345.69;;;8.19;47.31
52291;BME280;39663;45.432;28.050;2024-03-02T01:47:00;101341.03;;;8.28;47.27
52291;BME280;39663;45.432;28.050;2024-03-02T01:47:31;101338.77;;;8.26;47.49
52291;BME280;39663;45.432;28.050;2024-03-02T01:48:03;101343.90;;;8.25;47.99
52291;BME280;39663;45.432;28.050;2024-03-02T01:48:35;101342.18;;;8.79;47.64
52291;BME280;39663;45.432;28.050;2024-03-02T01:49:11;101340.46;;;8.49;47.50
52291;BME280;39663;45.432;28.050;2024-03-02T01:49:42;101341.27;;;9.82;46.73
52291;BME280;39663;45.432;28.050;2024-03-02T01:50:14;101341.28;;;9.69;45.45
52291;BME280;39663;45.432;28.050;2024-03-02T01:50:46;101342.23;;;9.19;45.74
52291;BME280;39663;45.432;28.050;2024-03-02T01:51:17;101344.35;;;9.24;45.94
52291;BME280;39663;45.432;28.050;2024-03-02T01:51:49;101344.08;;;9.33;45.75
52291;BME280;39663;45.432;28.050;2024-03-02T01:52:20;101343.02;;;8.58;46.67
52291;BME280;39663;45.432;28.050;2024-03-02T01:52:52;101344.20;;;8.45;47.12
52291;BME280;39663;45.432;28.050;2024-03-02T01:53:23;101342.35;;;8.51;46.89
52291;BME280;39663;45.432;28.050;2024-03-02T01:53:55;101347.03;;;8.05;48.05
52291;BME280;39663;45.432;28.050;2024-03-02T01:54:26;101342.16;;;8.47;47.57
52291;BME280;39663;45.432;28.050;2024-03-02T01:54:58;101343.60;;;8.36;47.23
52291;BME280;39663;45.432;28.050;2024-03-02T01:55:31;101343.74;;;8.45;47.33
52291;BME280;39663;45.432;28.050;2024-03-02T01:56:04;101349.84;;;8.08;48.27
52291;BME280;39663;45.432;28.050;2024-03-02T01:56:36;101351.02;;;7.68;48.60
52291;BME280;39663;45.432;28.050;2024-03-02T01:57:12;101350.06;;;8.70;47.53
52291;BME280;39663;45.432;28.050;2024-03-02T01:57:44;101349.51;;;8.73;47.17
52291;BME280;39663;45.432;28.050;2024-03-02T01:58:16;101350.52;;;8.60;47.04
52291;BME280;39663;45.432;28.050;2024-03-02T01:58:47;101349.92;;;8.71;47.44
52291;BME280;39663;45.432;28.050;2024-03-02T02:01:35;101352.11;;;7.16;48.88
52291;BME280;39663;45.432;28.050;2024-03-02T02:02:06;101354.41;;;7.03;49.41
52291;BME280;39663;45.432;28.050;2024-03-02T02:02:37;101350.56;;;7.20;49.07
52291;BME280;39663;45.432;28.050;2024-03-02T02:03:09;101349.11;;;7.46;48.96
52291;BME280;39663;45.432;28.050;2024-03-02T02:03:40;101349.87;;;7.43;48.89
52291;BME280;39663;45.432;28.050;2024-03-02T02:04:12;101349.58;;;7.68;48.97
52291;BME280;39663;45.432;28.050;2024-03-02T02:04:43;101347.03;;;7.31;49.31
52291;BME280;39663;45.432;28.050;2024-03-02T02:05:15;101344.93;;;7.82;48.96
52291;BME280;39663;45.432;28.050;2024-03-02T02:05:46;101342.53;;;9.07;47.85
52291;BME280;39663;45.432;28.050;2024-03-02T02:06:17;101344.30;;;9.12;46.82
52291;BME280;39663;45.432;28.050;2024-03-02T02:06:49;101343.22;;;8.61;46.76
52291;BME280;39663;45.432;28.050;2024-03-02T02:07:20;101343.15;;;8.53;46.79
52291;BME280;39663;45.432;28.050;2024-03-02T02:07:51;101342.37;;;8.17;47.63
52291;BME280;39663;45.432;28.050;2024-03-02T02:08:23;101341.77;;;8.15;47.53
52291;BME280;39663;45.432;28.050;2024-03-02T02:08:59;101341.17;;;8.65;46.79
52291;BME280;39663;45.432;28.050;2024-03-02T02:09:30;101339.34;;;8.23;47.32
52291;BME280;39663;45.432;28.050;2024-03-02T02:10:02;101342.39;;;8.39;47.64
52291;BME280;39663;45.432;28.050;2024-03-02T02:10:34;101343.51;;;7.96;47.75
52291;BME280;39663;45.432;28.050;2024-03-02T02:11:05;101343.20;;;7.66;48.36
52291;BME280;39663;45.432;28.050;2024-03-02T02:11:37;101343.06;;;7.62;48.78
52291;BME280;39663;45.432;28.050;2024-03-02T02:12:09;101340.62;;;8.55;47.63
52291;BME280;39663;45.432;28.050;2024-03-02T02:12:41;101341.19;;;8.60;47.24
52291;BME280;39663;45.432;28.050;2024-03-02T02:13:17;101349.39;;;7.61;48.34
52291;BME280;39663;45.432;28.050;2024-03-02T02:13:49;101345.68;;;8.05;48.05
52291;BME280;39663;45.432;28.050;2024-03-02T02:14:20;101342.40;;;8.41;48.19
52291;BME280;39663;45.432;28.050;2024-03-02T02:14:51;101340.76;;;8.71;46.61
52291;BME280;39663;45.432;28.050;2024-03-02T02:15:24;101345.34;;;8.28;47.56
52291;BME280;39663;45.432;28.050;2024-03-02T02:16:05;101346.84;;;7.91;48.17
52291;BME280;39663;45.432;28.050;2024-03-02T02:16:36;101342.64;;;8.22;47.63
52291;BME280;39663;45.432;28.050;2024-03-02T02:17:08;101343.81;;;8.21;48.10
52291;BME280;39663;45.432;28.050;2024-03-02T02:17:39;101342.45;;;8.02;47.98
52291;BME280;39663;45.432;28.050;2024-03-02T02:18:11;101344.78;;;7.95;48.29
52291;BME280;39663;45.432;28.050;2024-03-02T02:18:42;101343.81;;;8.13;48.08
52291;BME280;39663;45.432;28.050;2024-03-02T02:19:13;101339.60;;;8.37;47.32
52291;BME280;39663;45.432;28.050;2024-03-02T02:19:46;101340.21;;;8.53;47.56
52291;BME280;39663;45.432;28.050;2024-03-02T02:20:17;101339.00;;;8.48;47.64
52291;BME280;39663;45.432;28.050;2024-03-02T02:20:49;101339.06;;;9.07;46.33
52291;BME280;39663;45.432;28.050;2024-03-02T02:21:23;101339.91;;;9.05;46.08
52291;BME280;39663;45.432;28.050;2024-03-02T02:21:54;101340.15;;;8.17;47.18
52291;BME280;39663;45.432;28.050;2024-03-02T02:22:32;101343.74;;;8.25;47.53
52291;BME280;39663;45.432;28.050;2024-03-02T02:23:04;101338.19;;;8.51;47.05
52291;BME280;39663;45.432;28.050;2024-03-02T02:23:35;101341.22;;;8.32;47.09
52291;BME280;39663;45.432;28.050;2024-03-02T02:24:07;101338.61;;;8.82;46.99
52291;BME280;39663;45.432;28.050;2024-03-02T02:24:40;101339.17;;;9.28;46.28
52291;BME280;39663;45.432;28.050;2024-03-02T02:25:11;101336.66;;;9.69;46.32
52291;BME280;39663;45.432;28.050;2024-03-02T02:25:43;101337.12;;;10.45;44.53
52291;BME280;39663;45.432;28.050;2024-03-02T02:26:14;101336.39;;;9.47;44.84
52291;BME280;39663;45.432;28.050;2024-03-02T02:26:45;101336.67;;;9.68;44.89
52291;BME280;39663;45.432;28.050;2024-03-02T02:27:17;101337.18;;;9.54;45.53
52291;BME280;39663;45.432;28.050;2024-03-02T02:27:49;101335.77;;;9.60;45.34
52291;BME280;39663;45.432;28.050;2024-03-02T02:28:20;101337.91;;;9.76;44.96
52291;BME280;39663;45.432;28.050;2024-03-02T02:28:51;101337.06;;;9.65;45.24
52291;BME280;39663;45.432;28.050;2024-03-02T02:29:23;101336.83;;;10.08;44.53
52291;BME280;39663;45.432;28.050;2024-03-02T02:29:55;101333.51;;;10.58;44.30
52291;BME280;39663;45.432;28.050;2024-03-02T02:30:27;101331.77;;;10.02;43.84
52291;BME280;39663;45.432;28.050;2024-03-02T02:30:59;101334.24;;;10.09;44.47
52291;BME280;39663;45.432;28.050;2024-03-02T02:31:37;101334.44;;;9.94;43.98
52291;BME280;39663;45.432;28.050;2024-03-02T02:32:09;101334.15;;;9.58;44.13
52291;BME280;39663;45.432;28.050;2024-03-02T02:32:40;101335.73;;;9.67;44.21
52291;BME280;39663;45.432;28.050;2024-03-02T02:33:12;101335.91;;;9.11;44.97
52291;BME280;39663;45.432;28.050;2024-03-02T02:33:43;101337.67;;;8.74;45.80
52291;BME280;39663;45.432;28.050;2024-03-02T02:34:15;101335.99;;;9.50;44.72
52291;BME280;39663;45.432;28.050;2024-03-02T02:34:46;101337.28;;;9.45;44.79
52291;BME280;39663;45.432;28.050;2024-03-02T02:35:17;101336.69;;;9.18;45.09
52291;BME280;39663;45.432;28.050;2024-03-02T02:35:53;101336.28;;;9.35;45.65
52291;BME280;39663;45.432;28.050;2024-03-02T02:36:25;101334.12;;;10.43;44.70
52291;BME280;39663;45.432;28.050;2024-03-02T02:37:31;101333.85;;;9.97;43.50
52291;BME280;39663;45.432;28.050;2024-03-02T02:38:03;101334.08;;;10.32;43.68
52291;BME280;39663;45.432;28.050;2024-03-02T02:38:40;101340.26;;;9.79;43.58
52291;BME280;39663;45.432;28.050;2024-03-02T02:39:15;101341.28;;;9.80;43.66
52291;BME280;39663;45.432;28.050;2024-03-02T02:39:48;101341.66;;;9.35;44.16
52291;BME280;39663;45.432;28.050;2024-03-02T02:40:19;101346.80;;;9.04;44.70
52291;BME280;39663;45.432;28.050;2024-03-02T02:40:51;101345.10;;;9.03;44.88
52291;BME280;39663;45.432;28.050;2024-03-02T02:41:22;101346.30;;;8.57;45.18
52291;BME280;39663;45.432;28.050;2024-03-02T02:41:54;101345.16;;;8.96;45.35
52291;BME280;39663;45.432;28.050;2024-03-02T02:42:25;101348.47;;;9.23;44.80
52291;BME280;39663;45.432;28.050;2024-03-02T02:42:56;101349.46;;;9.15;45.48
52291;BME280;39663;45.432;28.050;2024-03-02T02:43:28;101344.81;;;9.68;43.87
52291;BME280;39663;45.432;28.050;2024-03-02T02:43:59;101345.94;;;9.30;44.21
52291;BME280;39663;45.432;28.050;2024-03-02T02:44:31;101348.92;;;8.56;45.02
52291;BME280;39663;45.432;28.050;2024-03-02T02:45:05;101351.00;;;9.01;45.06
52291;BME280;39663;45.432;28.050;2024-03-02T02:45:37;101348.56;;;8.51;44.84
52291;BME280;39663;45.432;28.050;2024-03-02T02:46:08;101348.58;;;8.62;45.05
52291;BME280;39663;45.432;28.050;2024-03-02T02:46:40;101348.27;;;8.22;45.83
52291;BME280;39663;45.432;28.050;2024-03-02T02:47:12;101347.20;;;8.41;45.53
52291;BME280;39663;45.432;28.050;2024-03-02T02:47:44;101340.19;;;9.31;44.66
52291;BME280;39663;45.432;28.050;2024-03-02T02:48:15;101342.87;;;8.96;44.96
52291;BME280;39663;45.432;28.050;2024-03-02T02:48:46;101340.83;;;8.35;45.60
52291;BME280;39663;45.432;28.050;2024-03-02T02:49:18;101343.81;;;7.79;46.00
52291;BME280;39663;45.432;28.050;2024-03-02T02:49:49;101343.46;;;7.74;46.74
52291;BME280;39663;45.432;28.050;2024-03-02T02:50:21;101343.47;;;7.63;46.52
52291;BME280;39663;45.432;28.050;2024-03-02T02:50:53;101339.83;;;8.52;45.70
52291;BME280;39663;45.432;28.050;2024-03-02T02:51:24;101338.79;;;9.39;46.02
52291;BME280;39663;45.432;28.050;2024-03-02T02:51:59;101340.13;;;9.54;43.93
52291;BME280;39663;45.432;28.050;2024-03-02T02:52:32;101337.32;;;8.83;44.71
52291;BME280;39663;45.432;28.050;2024-03-02T02:53:06;101339.24;;;8.34;45.63
52291;BME280;39663;45.432;28.050;2024-03-02T02:53:42;101344.66;;;8.04;46.05
52291;BME280;39663;45.432;28.050;2024-03-02T02:54:14;101339.55;;;8.45;45.92
52291;BME280;39663;45.432;28.050;2024-03-02T02:54:45;101341.11;;;8.46;45.55
52291;BME280;39663;45.432;28.050;2024-03-02T02:55:16;101342.36;;;8.34;45.75
52291;BME280;39663;45.432;28.050;2024-03-02T02:55:48;101343.00;;;8.46;45.62
52291;BME280;39663;45.432;28.050;2024-03-02T02:56:19;101344.57;;;8.16;46.30
52291;BME280;39663;45.432;28.050;2024-03-02T02:56:50;101342.78;;;8.42;45.94
52291;BME280;39663;45.432;28.050;2024-03-02T02:57:22;101343.98;;;8.41;45.52
52291;BME280;39663;45.432;28.050;2024-03-02T02:57:53;101343.01;;;8.46;45.66
52291;BME280;39663;45.432;28.050;2024-03-02T02:58:25;101344.88;;;8.43;45.91
52291;BME280;39663;45.432;28.050;2024-03-02T02:58:56;101341.17;;;8.28;45.72
52291;BME280;39663;45.432;28.050;2024-03-02T02:59:28;101343.17;;;8.00;46.03
52291;BME280;39663;45.432;28.050;2024-03-02T02:59:59;101347.39;;;7.61;46.72
52291;BME280;39663;45.432;28.050;2024-03-02T03:00:31;101345.55;;;7.68;47.04
52291;BME280;39663;45.432;28.050;2024-03-02T03:01:03;101343.97;;;7.64;47.07
52291;BME280;39663;45.432;28.050;2024-03-02T03:01:34;101342.28;;;7.84;46.50
52291;BME280;39663;45.432;28.050;2024-03-02T03:02:10;101343.79;;;7.83;46.59
52291;BME280;39663;45.432;28.050;2024-03-02T03:02:43;101341.06;;;8.20;46.23
52291;BME280;39663;45.432;28.050;2024-03-02T03:03:14;101340.95;;;8.65;45.78
52291;BME280;39663;45.432;28.050;2024-03-02T03:03:46;101336.68;;;8.95;45.12
52291;BME280;39663;45.432;28.050;2024-03-02T03:04:17;101335.76;;;8.44;45.34